createdAt,value
2023-05-06T00:01:25.524Z,22.50
2023-05-06T00:03:52.904Z,22.33
2023-05-06T00:06:20.150Z,20.90
2023-05-06T00:08:47.378Z,19.95
2023-05-06T00:11:14.700Z,19.52
2023-05-06T00:13:42.439Z,22.58
2023-05-06T00:16:09.633Z,18.58
2023-05-06T00:18:36.764Z,18.65
2023-05-06T00:21:03.936Z,14.15
2023-05-06T00:23:30.986Z,20.23
2023-05-06T00:25:57.999Z,13.88
2023-05-06T00:28:25.041Z,17.70
2023-05-06T00:30:52.039Z,18.80
2023-05-06T00:33:19.116Z,19.55
2023-05-06T00:35:46.188Z,17.38
2023-05-06T00:38:15.422Z,17.83
2023-05-06T00:40:42.576Z,18.70
2023-05-06T00:43:09.637Z,15.93
2023-05-06T00:45:37.008Z,17.73
2023-05-06T00:48:05.656Z,17.30
2023-05-06T00:50:34.667Z,19.05
2023-05-06T00:53:04.004Z,18.27
2023-05-06T00:55:31.805Z,19.52
2023-05-06T00:57:59.260Z,18.02
2023-05-06T01:00:26.554Z,19.45
2023-05-06T01:02:53.800Z,23.20
2023-05-06T01:05:23.882Z,21.70
2023-05-06T01:08:06.333Z,30.55
2023-05-06T01:10:45.411Z,23.50
2023-05-06T01:13:24.755Z,21.48
2023-05-06T01:15:55.854Z,21.38
2023-05-06T01:18:26.090Z,20.48
2023-05-06T01:20:56.040Z,26.80
2023-05-06T01:23:23.127Z,21.75
2023-05-06T01:25:50.198Z,24.90
2023-05-06T01:28:17.353Z,21.75
2023-05-06T01:31:03.965Z,26.67
2023-05-06T01:33:40.194Z,22.90
2023-05-06T01:36:16.110Z,32.55
2023-05-06T01:39:05.998Z,24.95
2023-05-06T01:41:34.963Z,18.85
2023-05-06T01:44:04.591Z,19.75
2023-05-06T01:46:33.013Z,23.60
2023-05-06T01:49:04.431Z,19.08
2023-05-06T01:51:34.235Z,21.30
2023-05-06T01:54:02.276Z,18.42
2023-05-06T01:56:32.216Z,18.00
2023-05-06T01:58:59.969Z,21.52
2023-05-06T02:01:27.424Z,15.88
2023-05-06T02:03:54.622Z,15.15
2023-05-06T02:06:21.836Z,15.30
2023-05-06T02:08:49.669Z,14.30
2023-05-06T02:11:16.815Z,20.70
2023-05-06T02:13:44.114Z,17.55
2023-05-06T02:16:11.526Z,16.70
2023-05-06T02:18:38.594Z,18.33
2023-05-06T02:21:05.706Z,20.38
2023-05-06T02:23:32.786Z,26.23
2023-05-06T02:25:59.832Z,26.10
2023-05-06T02:28:26.945Z,21.13
2023-05-06T02:30:57.636Z,28.17
2023-05-06T02:33:24.879Z,20.23
2023-05-06T02:35:52.083Z,23.73
2023-05-06T02:38:19.914Z,19.48
2023-05-06T02:40:46.997Z,16.75
2023-05-06T02:43:14.029Z,19.48
2023-05-06T02:45:41.121Z,19.60
2023-05-06T02:48:08.257Z,18.02
2023-05-06T02:50:36.376Z,20.27
2023-05-06T02:53:03.447Z,20.60
2023-05-06T02:55:30.772Z,17.85
2023-05-06T02:57:57.871Z,20.00
2023-05-06T03:00:24.940Z,23.02
2023-05-06T03:02:52.298Z,19.25
2023-05-06T03:05:19.575Z,19.25
2023-05-06T03:07:46.774Z,19.33
2023-05-06T03:10:14.056Z,18.00
2023-05-06T03:12:41.161Z,19.10
2023-05-06T03:15:08.890Z,19.98
2023-05-06T03:17:36.633Z,19.42
2023-05-06T03:20:04.099Z,15.93
2023-05-06T03:22:31.292Z,16.20
2023-05-06T03:24:58.307Z,14.98
2023-05-06T03:27:25.509Z,16.48
2023-05-06T03:29:52.585Z,16.60
2023-05-06T03:32:19.646Z,14.57
2023-05-06T03:34:46.701Z,12.27
2023-05-06T03:37:13.817Z,14.10
2023-05-06T03:39:40.925Z,14.70
2023-05-06T03:42:09.558Z,13.32
2023-05-06T03:44:37.017Z,12.52
2023-05-06T03:47:04.142Z,11.20
2023-05-06T03:49:31.187Z,10.80
2023-05-06T03:51:58.187Z,9.98
2023-05-06T03:54:25.367Z,9.52
2023-05-06T03:56:52.548Z,12.25
2023-05-06T03:59:19.648Z,12.00
2023-05-06T04:01:47.018Z,11.15
2023-05-06T04:04:14.204Z,9.45
2023-05-06T04:06:41.254Z,10.27
2023-05-06T04:09:08.281Z,9.98
2023-05-06T04:11:36.381Z,9.57
2023-05-06T04:14:03.493Z,12.80
2023-05-06T04:16:30.649Z,10.57
2023-05-06T04:18:57.860Z,10.93
2023-05-06T04:21:24.953Z,11.43
2023-05-06T04:23:52.096Z,11.80
2023-05-06T04:26:19.130Z,13.50
2023-05-06T04:28:46.160Z,11.43
2023-05-06T04:31:14.756Z,10.80
2023-05-06T04:33:42.169Z,10.25
2023-05-06T04:36:09.401Z,8.43
2023-05-06T04:38:37.592Z,8.88
2023-05-06T04:41:05.749Z,10.73
2023-05-06T04:43:34.123Z,8.93
2023-05-06T04:46:01.819Z,7.47
2023-05-06T04:48:28.986Z,8.02
2023-05-06T04:50:56.096Z,9.00
2023-05-06T04:53:23.171Z,8.85
2023-05-06T04:55:50.153Z,11.20
2023-05-06T04:58:17.236Z,10.68
2023-05-06T05:00:44.271Z,7.05
2023-05-06T05:03:11.726Z,6.80
2023-05-06T05:05:38.854Z,6.82
2023-05-06T05:08:06.208Z,6.88
2023-05-06T05:10:33.309Z,6.70
2023-05-06T05:13:00.600Z,9.93
2023-05-06T05:15:27.745Z,7.35
2023-05-06T05:17:54.934Z,7.38
2023-05-06T05:20:24.587Z,5.90
2023-05-06T05:22:51.672Z,5.93
2023-05-06T05:25:18.871Z,5.00
2023-05-06T05:27:46.425Z,5.95
2023-05-06T05:30:13.684Z,5.65
2023-05-06T05:32:40.780Z,5.32
2023-05-06T05:35:10.699Z,5.40
2023-05-06T05:37:38.116Z,5.43
2023-05-06T05:40:05.970Z,4.90
2023-05-06T05:42:33.903Z,5.40
2023-05-06T05:45:01.078Z,4.43
2023-05-06T05:47:28.206Z,5.25
2023-05-06T05:49:55.260Z,5.25
2023-05-06T05:52:22.425Z,5.70
2023-05-06T05:54:50.301Z,6.13
2023-05-06T05:57:17.307Z,6.13
2023-05-06T05:59:44.482Z,6.65
2023-05-06T06:02:11.514Z,5.43
2023-05-06T06:04:39.660Z,6.25
2023-05-06T06:07:06.871Z,6.30
2023-05-06T06:09:34.595Z,6.10
2023-05-06T06:12:02.264Z,5.25
2023-05-06T06:14:29.354Z,5.90
2023-05-06T06:16:56.509Z,5.63
2023-05-06T06:19:23.506Z,6.15
2023-05-06T06:21:50.842Z,6.07
2023-05-06T06:24:18.053Z,5.63
2023-05-06T06:26:45.183Z,5.53
2023-05-06T06:29:12.553Z,5.75
2023-05-06T06:31:40.683Z,5.72
2023-05-06T06:34:09.221Z,5.65
2023-05-06T06:36:36.381Z,5.13
2023-05-06T06:39:03.563Z,5.35
2023-05-06T06:41:30.640Z,5.25
2023-05-06T06:43:57.669Z,4.90
2023-05-06T06:46:25.810Z,5.50
2023-05-06T06:48:53.379Z,5.80
2023-05-06T06:51:20.411Z,5.90
2023-05-06T06:53:49.215Z,6.20
2023-05-06T06:56:16.414Z,6.78
2023-05-06T06:58:43.685Z,6.18
2023-05-06T07:01:11.217Z,6.13
2023-05-06T07:03:38.425Z,6.70
2023-05-06T07:06:05.491Z,6.35
2023-05-06T07:08:32.552Z,6.25
2023-05-06T07:10:59.635Z,5.90
2023-05-06T07:13:26.936Z,6.28
2023-05-06T07:15:54.042Z,6.18
2023-05-06T07:18:21.204Z,5.93
2023-05-06T07:20:48.245Z,5.38
2023-05-06T07:23:15.306Z,5.32
2023-05-06T07:25:42.301Z,4.57
2023-05-06T07:28:09.357Z,4.13
2023-05-06T07:30:38.732Z,4.03
2023-05-06T07:33:05.947Z,4.28
2023-05-06T07:35:33.456Z,3.90
2023-05-06T07:38:00.498Z,4.20
2023-05-06T07:40:27.701Z,3.97
2023-05-06T07:42:54.703Z,3.50
2023-05-06T07:45:23.677Z,4.70
2023-05-06T07:47:51.287Z,4.28
2023-05-06T07:50:18.539Z,4.38
2023-05-06T07:52:45.697Z,4.03
2023-05-06T07:55:13.040Z,3.97
2023-05-06T07:57:40.316Z,4.35
2023-05-06T08:00:10.112Z,3.70
2023-05-06T08:02:38.966Z,3.83
2023-05-06T08:05:08.933Z,3.60
2023-05-06T08:07:36.213Z,3.90
2023-05-06T08:10:04.426Z,4.40
2023-05-06T08:12:32.457Z,3.58
2023-05-06T08:14:59.532Z,3.30
2023-05-06T08:17:26.736Z,3.10
2023-05-06T08:19:53.871Z,2.92
2023-05-06T08:22:20.978Z,3.80
2023-05-06T08:24:47.990Z,3.45
2023-05-06T08:27:15.042Z,3.20
2023-05-06T08:29:45.199Z,2.80
2023-05-06T08:32:12.287Z,2.70
2023-05-06T08:34:39.436Z,3.08
2023-05-06T08:37:06.882Z,3.25
2023-05-06T08:39:34.176Z,3.60
2023-05-06T08:42:05.268Z,3.13
2023-05-06T08:44:33.887Z,3.30
2023-05-06T08:47:01.073Z,3.60
2023-05-06T08:49:28.896Z,3.55
2023-05-06T08:51:56.939Z,3.72
2023-05-06T08:54:28.804Z,3.10
2023-05-06T08:56:59.581Z,3.20
2023-05-06T08:59:31.125Z,3.33
2023-05-06T09:01:58.317Z,3.03
2023-05-06T09:04:26.130Z,2.78
2023-05-06T09:06:53.247Z,2.90
2023-05-06T09:09:20.301Z,3.60
2023-05-06T09:11:54.206Z,2.90
2023-05-06T09:14:22.265Z,2.88
2023-05-06T09:16:52.701Z,3.10
2023-05-06T09:19:22.546Z,2.80
2023-05-06T09:21:51.051Z,3.00
2023-05-06T09:24:19.031Z,2.70
2023-05-06T09:26:47.303Z,2.72
2023-05-06T09:29:14.517Z,3.10
2023-05-06T09:31:43.867Z,2.40
2023-05-06T09:34:11.769Z,2.75
2023-05-06T09:36:39.076Z,2.88
2023-05-06T09:39:06.979Z,2.15
2023-05-06T09:41:34.104Z,2.45
2023-05-06T09:44:01.745Z,2.30
2023-05-06T09:46:29.244Z,2.00
2023-05-06T09:48:58.398Z,2.35
2023-05-06T09:51:28.038Z,2.00
2023-05-06T09:53:57.881Z,1.75
2023-05-06T09:56:26.242Z,1.70
2023-05-06T09:58:55.869Z,1.60
2023-05-06T10:01:35.160Z,1.55
2023-05-06T10:04:10.140Z,2.30
2023-05-06T10:06:40.729Z,2.03
2023-05-06T10:09:11.209Z,1.75
2023-05-06T10:11:38.992Z,1.92
2023-05-06T10:14:08.012Z,2.00
2023-05-06T10:16:36.730Z,2.10
2023-05-06T10:19:05.129Z,2.20
2023-05-06T10:21:34.635Z,2.00
2023-05-06T10:24:07.194Z,2.58
2023-05-06T10:26:37.768Z,1.73
2023-05-06T10:29:09.932Z,1.98
2023-05-06T10:31:43.689Z,1.83
2023-05-06T10:34:11.131Z,1.88
2023-05-06T10:36:40.083Z,1.77
2023-05-06T10:39:11.062Z,1.63
2023-05-06T10:41:38.300Z,1.40
2023-05-06T10:44:06.232Z,1.73
2023-05-06T10:46:53.845Z,2.03
2023-05-06T10:49:21.075Z,1.50
2023-05-06T10:51:49.189Z,1.60
2023-05-06T10:54:19.322Z,1.20
2023-05-06T10:56:49.128Z,1.13
2023-05-06T10:59:24.313Z,1.00
2023-05-06T11:02:03.516Z,1.20
2023-05-06T11:04:31.536Z,1.50
2023-05-06T11:07:12.054Z,1.15
2023-05-06T11:09:59.828Z,1.20
2023-05-06T11:12:46.315Z,1.23
2023-05-06T11:15:40.655Z,1.10
2023-05-06T11:18:29.660Z,1.30
2023-05-06T11:21:05.205Z,1.35
2023-05-06T11:23:49.699Z,1.40
2023-05-06T11:26:17.081Z,1.20
2023-05-06T11:28:45.985Z,1.30
2023-05-06T11:31:14.317Z,1.50
2023-05-06T11:33:49.882Z,1.20
2023-05-06T11:36:18.293Z,1.35
2023-05-06T11:38:51.354Z,1.30
2023-05-06T11:41:19.224Z,1.38
2023-05-06T11:43:47.145Z,1.33
2023-05-06T11:46:14.286Z,1.38
2023-05-06T11:48:43.119Z,1.30
2023-05-06T11:51:10.181Z,1.50
2023-05-06T11:53:38.236Z,1.23
2023-05-06T11:56:08.244Z,1.30
2023-05-06T11:58:35.416Z,1.58
2023-05-06T12:01:04.167Z,1.40
2023-05-06T12:03:33.145Z,1.30
2023-05-06T12:06:00.733Z,1.20
2023-05-06T12:08:33.233Z,1.63
2023-05-06T12:11:04.635Z,1.42
2023-05-06T12:13:32.049Z,1.20
2023-05-06T12:16:00.480Z,1.35
2023-05-06T12:18:28.367Z,1.50
2023-05-06T12:21:02.728Z,1.27
2023-05-06T12:23:29.884Z,1.27
2023-05-06T12:26:05.175Z,1.40
2023-05-06T12:28:33.904Z,1.20
2023-05-06T12:31:17.632Z,1.35
2023-05-06T12:33:46.553Z,1.55
2023-05-06T12:36:13.792Z,1.38
2023-05-06T12:38:53.909Z,1.20
2023-05-06T12:41:21.740Z,1.40
2023-05-06T12:43:49.346Z,1.23
2023-05-06T12:46:17.491Z,1.30
2023-05-06T12:49:03.514Z,1.58
2023-05-06T12:51:31.213Z,1.23
2023-05-06T12:53:58.540Z,1.40
2023-05-06T12:56:25.716Z,1.50
2023-05-06T12:59:00.917Z,1.52
2023-05-06T13:01:28.137Z,1.67
2023-05-06T13:03:59.362Z,1.30
2023-05-06T13:06:26.426Z,1.30
2023-05-06T13:08:53.786Z,1.27
2023-05-06T13:11:22.368Z,1.52
2023-05-06T13:13:49.512Z,1.30
2023-05-06T13:16:16.962Z,1.25
2023-05-06T13:18:44.194Z,1.27
2023-05-06T13:21:13.188Z,1.30
2023-05-06T13:23:46.988Z,1.10
2023-05-06T13:26:14.960Z,0.93
2023-05-06T13:28:42.276Z,1.30
2023-05-06T13:31:09.395Z,1.30
2023-05-06T13:33:36.717Z,1.20
2023-05-06T13:36:05.430Z,1.20
2023-05-06T13:38:32.817Z,1.30
2023-05-06T13:40:59.984Z,1.02
2023-05-06T13:43:27.216Z,1.58
2023-05-06T13:45:54.218Z,1.23
2023-05-06T13:48:21.394Z,1.00
2023-05-06T13:50:48.533Z,1.10
2023-05-06T13:53:16.497Z,1.10
2023-05-06T13:55:43.797Z,1.23
2023-05-06T13:58:12.488Z,1.10
2023-05-06T14:00:39.829Z,1.25
2023-05-06T14:03:07.088Z,1.50
2023-05-06T14:05:34.357Z,1.40
2023-05-06T14:08:01.537Z,1.75
2023-05-06T14:10:28.593Z,1.85
2023-05-06T14:12:56.291Z,1.70
2023-05-06T14:15:23.558Z,1.48
2023-05-06T14:17:50.700Z,1.08
2023-05-06T14:20:17.821Z,1.35
2023-05-06T14:22:44.933Z,0.90
2023-05-06T14:25:12.779Z,1.00
2023-05-06T14:27:40.102Z,1.45
2023-05-06T14:30:09.704Z,1.40
2023-05-06T14:32:37.692Z,1.30
2023-05-06T14:35:05.220Z,1.30
2023-05-06T14:37:32.297Z,2.10
2023-05-06T14:39:59.358Z,2.05
2023-05-06T14:42:26.453Z,1.30
2023-05-06T14:44:53.567Z,1.88
2023-05-06T14:47:20.769Z,1.95
2023-05-06T14:49:48.111Z,2.03
2023-05-06T14:52:15.154Z,1.92
2023-05-06T14:54:43.029Z,1.80
2023-05-06T14:57:10.776Z,1.88
2023-05-06T14:59:38.622Z,1.90
2023-05-06T15:02:08.756Z,1.95
2023-05-06T15:04:36.671Z,2.00
2023-05-06T15:07:04.408Z,2.05
2023-05-06T15:09:31.572Z,2.00
2023-05-06T15:11:58.695Z,1.83
2023-05-06T15:14:26.001Z,2.38
2023-05-06T15:16:58.346Z,2.60
2023-05-06T15:19:25.489Z,2.75
2023-05-06T15:21:52.520Z,2.15
2023-05-06T15:24:19.591Z,2.72
2023-05-06T15:26:46.713Z,3.08
2023-05-06T15:29:14.060Z,8.88
2023-05-06T15:31:44.006Z,6.65
2023-05-06T15:34:12.390Z,4.70
2023-05-06T15:36:41.804Z,2.50
2023-05-06T15:39:12.757Z,5.55
2023-05-06T15:41:39.866Z,3.97
2023-05-06T15:44:06.969Z,3.25
2023-05-06T15:46:34.145Z,2.03
2023-05-06T15:51:32.048Z,2.05
2023-05-06T15:53:59.084Z,2.03
2023-05-06T15:56:27.121Z,1.92
2023-05-06T15:58:55.125Z,1.80
2023-05-06T16:01:37.541Z,1.63
2023-05-06T16:04:09.655Z,1.50
2023-05-06T16:06:37.066Z,2.60
2023-05-06T16:09:04.416Z,2.80
2023-05-06T16:11:31.497Z,2.88
2023-05-06T16:13:58.604Z,2.95
2023-05-06T16:16:25.890Z,2.92
2023-05-06T16:18:53.125Z,2.70
2023-05-06T16:21:20.209Z,2.72
2023-05-06T16:23:47.389Z,3.10
2023-05-06T16:26:14.994Z,3.13
2023-05-06T16:28:42.002Z,3.50
2023-05-06T16:31:09.199Z,3.40
2023-05-06T16:33:36.389Z,3.22
2023-05-06T16:36:04.088Z,2.70
2023-05-06T16:38:31.162Z,2.22
2023-05-06T16:40:58.260Z,2.35
2023-05-06T16:43:25.658Z,3.55
2023-05-06T16:45:53.976Z,3.60
2023-05-06T16:48:21.279Z,2.83
2023-05-06T16:50:48.588Z,2.97
2023-05-06T16:53:17.458Z,3.10
2023-05-06T16:55:49.092Z,2.85
2023-05-06T16:58:16.256Z,1.90
2023-05-06T17:00:43.711Z,1.90
2023-05-06T17:03:12.407Z,2.78
2023-05-06T17:05:40.084Z,2.78
2023-05-06T17:08:07.297Z,2.78
2023-05-06T17:10:35.102Z,2.67
2023-05-06T17:13:02.744Z,2.70
2023-05-06T17:15:30.349Z,2.53
2023-05-06T17:17:57.657Z,2.17
2023-05-06T17:20:25.421Z,2.13
2023-05-06T17:22:52.641Z,2.75
2023-05-06T17:25:19.893Z,2.17
2023-05-06T17:27:47.114Z,2.00
2023-05-06T17:30:15.228Z,2.78
2023-05-06T17:32:43.045Z,3.10
2023-05-06T17:35:10.592Z,2.90
2023-05-06T17:37:37.897Z,2.45
2023-05-06T17:40:07.625Z,2.85
2023-05-06T17:42:34.963Z,4.15
2023-05-06T17:45:02.166Z,3.80
2023-05-06T17:47:30.348Z,3.40
2023-05-06T17:49:57.737Z,3.70
2023-05-06T17:52:28.176Z,3.40
2023-05-06T17:55:10.834Z,4.00
2023-05-06T17:57:38.737Z,3.70
2023-05-06T18:00:07.501Z,3.45
2023-05-06T18:02:34.926Z,2.90
2023-05-06T18:05:02.262Z,3.58
2023-05-06T18:07:29.911Z,2.80
2023-05-06T18:09:57.118Z,2.72
2023-05-06T18:12:24.297Z,2.35
2023-05-06T18:14:51.347Z,2.13
2023-05-06T18:17:18.399Z,2.88
2023-05-06T18:19:45.513Z,3.28
2023-05-06T18:22:12.500Z,2.70
2023-05-06T18:24:39.563Z,2.88
2023-05-06T18:27:06.692Z,3.35
2023-05-06T18:29:35.483Z,3.42
2023-05-06T18:32:02.921Z,3.63
2023-05-06T18:34:29.987Z,3.60
2023-05-06T18:36:59.047Z,3.22
2023-05-06T18:39:26.172Z,3.53
2023-05-06T18:41:53.190Z,3.60
2023-05-06T18:44:20.270Z,3.65
2023-05-06T18:46:47.412Z,4.88
2023-05-06T18:49:14.608Z,4.70
2023-05-06T18:51:44.506Z,5.13
2023-05-06T18:54:12.861Z,4.55
2023-05-06T18:56:42.592Z,5.40
2023-05-06T18:59:09.828Z,5.00
2023-05-06T19:01:41.842Z,3.88
2023-05-06T19:04:09.192Z,4.40
2023-05-06T19:06:38.591Z,5.57
2023-05-06T19:09:07.413Z,5.00
2023-05-06T19:11:35.132Z,4.63
2023-05-06T19:14:02.221Z,4.75
2023-05-06T19:16:29.450Z,3.90
2023-05-06T19:18:56.620Z,6.30
2023-05-06T19:21:23.806Z,5.90
2023-05-06T19:23:53.426Z,6.00
2023-05-06T19:26:21.207Z,5.25
2023-05-06T19:28:50.492Z,4.93
2023-05-06T19:31:17.541Z,4.60
2023-05-06T19:33:45.718Z,4.72
2023-05-06T19:36:13.071Z,4.10
2023-05-06T19:38:40.446Z,4.22
2023-05-06T19:41:10.831Z,4.07
2023-05-06T19:43:42.627Z,4.05
2023-05-06T19:46:11.111Z,4.07
2023-05-06T19:48:39.181Z,4.28
2023-05-06T19:51:07.748Z,4.35
2023-05-06T19:53:37.104Z,4.70
2023-05-06T19:56:11.868Z,4.30
2023-05-06T19:58:39.707Z,4.80
2023-05-06T20:01:07.954Z,5.05
2023-05-06T20:03:36.434Z,5.47
2023-05-06T20:06:04.187Z,5.95
2023-05-06T20:08:32.494Z,5.90
2023-05-06T20:11:03.074Z,5.70
2023-05-06T20:13:33.093Z,5.88
2023-05-06T20:16:05.153Z,5.80
2023-05-06T20:18:39.037Z,6.40
2023-05-06T20:21:08.123Z,6.20
2023-05-06T20:23:36.670Z,5.43
2023-05-06T20:26:03.754Z,5.35
2023-05-06T20:28:31.648Z,5.45
2023-05-06T20:31:00.042Z,5.93
2023-05-06T20:33:27.068Z,5.40
2023-05-06T20:35:54.124Z,5.40
2023-05-06T20:38:21.626Z,5.07
2023-05-06T20:40:48.932Z,5.90
2023-05-06T20:43:16.389Z,5.55
2023-05-06T20:45:43.479Z,5.28
2023-05-06T20:48:12.275Z,4.93
2023-05-06T20:50:40.119Z,5.28
2023-05-06T20:53:07.220Z,4.95
2023-05-06T20:55:34.725Z,4.25
2023-05-06T20:58:01.900Z,4.15
2023-05-06T21:00:29.085Z,3.72
2023-05-06T21:02:56.360Z,3.40
2023-05-06T21:05:24.018Z,3.60
2023-05-06T21:07:51.150Z,3.80
2023-05-06T21:10:18.235Z,3.42
2023-05-06T21:12:50.273Z,3.55
2023-05-06T21:15:17.477Z,3.47
2023-05-06T21:17:44.883Z,3.20
2023-05-06T21:20:12.694Z,3.28
2023-05-06T21:22:39.781Z,2.88
2023-05-06T21:25:07.690Z,3.35
2023-05-06T21:27:36.083Z,2.83
2023-05-06T21:30:03.398Z,2.85
2023-05-06T21:32:33.188Z,2.90
2023-05-06T21:35:03.713Z,3.17
2023-05-06T21:37:30.818Z,3.30
2023-05-06T21:39:58.027Z,3.30
2023-05-06T21:42:25.181Z,3.95
2023-05-06T21:44:52.264Z,4.07
2023-05-06T21:47:19.381Z,3.90
2023-05-06T21:49:46.471Z,3.58
2023-05-06T21:52:13.611Z,3.10
2023-05-06T21:54:40.737Z,3.30
2023-05-06T21:57:09.232Z,3.20
2023-05-06T21:59:36.371Z,3.00
2023-05-06T22:02:04.159Z,3.35
2023-05-06T22:04:31.421Z,2.92
2023-05-06T22:06:58.593Z,2.70
2023-05-06T22:09:25.738Z,2.45
2023-05-06T22:11:52.787Z,2.90
2023-05-06T22:14:21.907Z,2.67
2023-05-06T22:16:52.855Z,2.97
2023-05-06T22:19:20.366Z,3.03
2023-05-06T22:21:47.440Z,2.75
2023-05-06T22:24:14.541Z,3.03
2023-05-06T22:26:41.618Z,2.88
2023-05-06T22:29:08.682Z,2.67
2023-05-06T22:31:35.745Z,2.67
2023-05-06T22:34:04.773Z,2.83
2023-05-06T22:36:34.991Z,2.92
2023-05-06T22:39:02.342Z,2.80
2023-05-06T22:41:30.563Z,2.53
2023-05-06T22:43:57.699Z,2.58
2023-05-06T22:46:25.128Z,2.60
2023-05-06T22:48:52.246Z,2.70
2023-05-06T22:51:21.247Z,2.40
2023-05-06T22:53:48.528Z,2.70
2023-05-06T22:56:15.577Z,2.55
2023-05-06T22:58:42.598Z,2.50
2023-05-06T23:01:09.950Z,2.33
2023-05-06T23:03:37.072Z,2.30
2023-05-06T23:06:06.279Z,2.25
2023-05-06T23:08:33.380Z,2.60
2023-05-06T23:11:00.631Z,2.50
2023-05-06T23:13:27.931Z,2.47
2023-05-06T23:15:55.060Z,2.90
2023-05-06T23:18:22.158Z,2.38
2023-05-06T23:20:49.226Z,2.20
2023-05-06T23:23:16.305Z,2.70
2023-05-06T23:25:43.288Z,2.80
2023-05-06T23:28:10.526Z,2.88
2023-05-06T23:30:37.704Z,2.78
2023-05-06T23:33:04.710Z,2.50
2023-05-06T23:35:31.783Z,2.60
2023-05-06T23:37:58.764Z,2.63
2023-05-06T23:40:25.845Z,2.63
2023-05-06T23:42:52.911Z,2.88
2023-05-06T23:45:20.535Z,3.10
2023-05-06T23:47:47.700Z,2.58
2023-05-06T23:50:15.002Z,2.63
2023-05-06T23:52:42.182Z,2.67
2023-05-06T23:55:09.913Z,2.80
2023-05-06T23:57:37.211Z,2.75
